Terminal Aerodrome Forecast
Issued by NWS Denver/Boulder, CO

Home | Current Version | Previous Version | Text Only | Print | Product List | Glossary On
Versions: 1 2 3 4 5 6 7 8 9 10 11 12 13 14 15 16 17 18 19 20 21 22 23 24 25 26 27 28 29 30 31 32 33 34 35 36 37 38 39 40 41 42 43 44 45 46 47 48 49 50
973
FTUS45 KBOU 230619 AAA
TAFDEN
TAF AMD
KDEN 230619Z 2306/2412 22010KT P6SM SCT130 BKN200
     FM230630 07010G16KT P6SM SCT160 BKN200
     FM230800 20008KT P6SM SCT160 BKN200
     FM231700 03007KT P6SM FEW090 SCT130
     FM232200 05008KT P6SM SCT090 BKN130 PROB30 2323/2403 VRB15G28KT
      -TSRA BKN090CB
     FM240300 18010KT P6SM FEW090 SCT130 BKN200
     FM240600 22010KT P6SM SCT130 BKN200=

USA.gov is the U.S. government's official web portal to all federal, state and local government web resources and services.